sensor_id;sensor_type;location;lat;lon;timestamp;P1;durP1;ratioP1;P2;durP2;ratioP2
16117;SDS011;8163;50.118;5.342;2023-08-07T00:02:00;0.60;;;0.60;;
16117;SDS011;8163;50.118;5.342;2023-08-07T00:04:29;0.50;;;0.50;;
16117;SDS011;8163;50.118;5.342;2023-08-07T00:06:56;0.55;;;0.55;;
16117;SDS011;8163;50.118;5.342;2023-08-07T00:09:23;0.60;;;0.60;;
16117;SDS011;8163;50.118;5.342;2023-08-07T00:11:50;0.50;;;0.50;;
16117;SDS011;8163;50.118;5.342;2023-08-07T00:14:18;0.50;;;0.50;;
16117;SDS011;8163;50.118;5.342;2023-08-07T00:16:45;0.50;;;0.50;;
16117;SDS011;8163;50.118;5.342;2023-08-07T00:19:12;0.60;;;0.60;;
16117;SDS011;8163;50.118;5.342;2023-08-07T00:21:40;0.50;;;0.50;;
16117;SDS011;8163;50.118;5.342;2023-08-07T00:24:08;0.50;;;0.50;;
16117;SDS011;8163;50.118;5.342;2023-08-07T00:26:35;0.50;;;0.50;;
16117;SDS011;8163;50.118;5.342;2023-08-07T00:29:02;0.50;;;0.50;;
16117;SDS011;8163;50.118;5.342;2023-08-07T00:31:31;0.60;;;0.60;;
16117;SDS011;8163;50.118;5.342;2023-08-07T00:33:58;0.60;;;0.60;;
16117;SDS011;8163;50.118;5.342;2023-08-07T00:36:25;0.60;;;0.60;;
16117;SDS011;8163;50.118;5.342;2023-08-07T00:38:54;0.60;;;0.60;;
16117;SDS011;8163;50.118;5.342;2023-08-07T00:41:21;0.60;;;0.60;;
16117;SDS011;8163;50.118;5.342;2023-08-07T00:43:48;0.50;;;0.50;;
16117;SDS011;8163;50.118;5.342;2023-08-07T00:46:15;0.60;;;0.60;;
16117;SDS011;8163;50.118;5.342;2023-08-07T00:48:44;0.60;;;0.60;;
16117;SDS011;8163;50.118;5.342;2023-08-07T00:51:12;0.50;;;0.50;;
16117;SDS011;8163;50.118;5.342;2023-08-07T00:53:39;0.50;;;0.50;;
16117;SDS011;8163;50.118;5.342;2023-08-07T00:56:08;0.60;;;0.60;;
16117;SDS011;8163;50.118;5.342;2023-08-07T00:58:36;0.40;;;0.40;;
16117;SDS011;8163;50.118;5.342;2023-08-07T01:01:03;0.50;;;0.50;;
16117;SDS011;8163;50.118;5.342;2023-08-07T01:03:31;0.60;;;0.60;;
16117;SDS011;8163;50.118;5.342;2023-08-07T01:05:59;0.50;;;0.50;;
16117;SDS011;8163;50.118;5.342;2023-08-07T01:08:27;0.50;;;0.50;;
16117;SDS011;8163;50.118;5.342;2023-08-07T01:11:01;0.50;;;0.50;;
16117;SDS011;8163;50.118;5.342;2023-08-07T01:13:40;0.52;;;0.52;;
16117;SDS011;8163;50.118;5.342;2023-08-07T01:16:13;0.50;;;0.50;;
16117;SDS011;8163;50.118;5.342;2023-08-07T01:18:49;0.47;;;0.47;;
16117;SDS011;8163;50.118;5.342;2023-08-07T01:21:20;0.50;;;0.50;;
16117;SDS011;8163;50.118;5.342;2023-08-07T01:23:50;0.55;;;0.55;;
16117;SDS011;8163;50.118;5.342;2023-08-07T01:26:19;0.50;;;0.50;;
16117;SDS011;8163;50.118;5.342;2023-08-07T01:28:48;0.57;;;0.57;;
16117;SDS011;8163;50.118;5.342;2023-08-07T01:31:20;0.50;;;0.50;;
16117;SDS011;8163;50.118;5.342;2023-08-07T01:33:51;0.55;;;0.55;;
16117;SDS011;8163;50.118;5.342;2023-08-07T01:36:25;0.50;;;0.50;;
16117;SDS011;8163;50.118;5.342;2023-08-07T01:38:56;0.50;;;0.50;;
16117;SDS011;8163;50.118;5.342;2023-08-07T01:41:25;0.50;;;0.50;;
16117;SDS011;8163;50.118;5.342;2023-08-07T01:43:53;0.40;;;0.40;;
16117;SDS011;8163;50.118;5.342;2023-08-07T01:46:21;0.52;;;0.52;;
16117;SDS011;8163;50.118;5.342;2023-08-07T01:48:48;0.60;;;0.60;;
16117;SDS011;8163;50.118;5.342;2023-08-07T01:51:15;0.50;;;0.50;;
16117;SDS011;8163;50.118;5.342;2023-08-07T01:53:42;0.60;;;0.60;;
16117;SDS011;8163;50.118;5.342;2023-08-07T01:56:10;0.50;;;0.50;;
16117;SDS011;8163;50.118;5.342;2023-08-07T01:58:37;0.60;;;0.60;;
16117;SDS011;8163;50.118;5.342;2023-08-07T02:01:04;0.60;;;0.60;;
16117;SDS011;8163;50.118;5.342;2023-08-07T02:03:31;0.70;;;0.70;;
16117;SDS011;8163;50.118;5.342;2023-08-07T02:05:58;0.60;;;0.60;;
16117;SDS011;8163;50.118;5.342;2023-08-07T02:08:27;0.70;;;0.70;;
16117;SDS011;8163;50.118;5.342;2023-08-07T02:10:54;0.60;;;0.60;;
16117;SDS011;8163;50.118;5.342;2023-08-07T02:13:22;0.60;;;0.60;;
16117;SDS011;8163;50.118;5.342;2023-08-07T02:15:49;0.60;;;0.60;;
16117;SDS011;8163;50.118;5.342;2023-08-07T02:18:16;0.60;;;0.60;;
16117;SDS011;8163;50.118;5.342;2023-08-07T02:20:43;0.60;;;0.60;;
16117;SDS011;8163;50.118;5.342;2023-08-07T02:23:11;0.60;;;0.60;;
16117;SDS011;8163;50.118;5.342;2023-08-07T02:25:38;0.60;;;0.60;;
16117;SDS011;8163;50.118;5.342;2023-08-07T02:28:05;0.60;;;0.60;;
16117;SDS011;8163;50.118;5.342;2023-08-07T02:30:33;0.57;;;0.57;;
16117;SDS011;8163;50.118;5.342;2023-08-07T02:33:00;0.40;;;0.40;;
16117;SDS011;8163;50.118;5.342;2023-08-07T02:35:27;0.40;;;0.40;;
16117;SDS011;8163;50.118;5.342;2023-08-07T02:37:54;0.60;;;0.60;;
16117;SDS011;8163;50.118;5.342;2023-08-07T02:40:22;0.57;;;0.57;;
16117;SDS011;8163;50.118;5.342;2023-08-07T02:42:49;0.60;;;0.60;;
16117;SDS011;8163;50.118;5.342;2023-08-07T02:45:18;0.60;;;0.60;;
16117;SDS011;8163;50.118;5.342;2023-08-07T02:47:47;0.60;;;0.60;;
16117;SDS011;8163;50.118;5.342;2023-08-07T02:50:14;0.60;;;0.60;;
16117;SDS011;8163;50.118;5.342;2023-08-07T02:52:41;0.50;;;0.50;;
16117;SDS011;8163;50.118;5.342;2023-08-07T02:55:08;0.55;;;0.55;;
16117;SDS011;8163;50.118;5.342;2023-08-07T02:57:35;0.50;;;0.50;;
16117;SDS011;8163;50.118;5.342;2023-08-07T03:00:02;0.60;;;0.60;;
16117;SDS011;8163;50.118;5.342;2023-08-07T03:02:31;0.60;;;0.60;;
16117;SDS011;8163;50.118;5.342;2023-08-07T03:04:59;0.50;;;0.50;;
16117;SDS011;8163;50.118;5.342;2023-08-07T03:07:26;0.50;;;0.50;;
16117;SDS011;8163;50.118;5.342;2023-08-07T03:09:53;0.50;;;0.50;;
16117;SDS011;8163;50.118;5.342;2023-08-07T03:12:20;0.40;;;0.40;;
16117;SDS011;8163;50.118;5.342;2023-08-07T03:14:47;0.50;;;0.50;;
16117;SDS011;8163;50.118;5.342;2023-08-07T03:17:14;0.50;;;0.50;;
16117;SDS011;8163;50.118;5.342;2023-08-07T03:19:42;0.50;;;0.50;;
16117;SDS011;8163;50.118;5.342;2023-08-07T03:22:11;0.50;;;0.50;;
16117;SDS011;8163;50.118;5.342;2023-08-07T03:24:38;0.50;;;0.50;;
16117;SDS011;8163;50.118;5.342;2023-08-07T03:27:05;0.60;;;0.60;;
16117;SDS011;8163;50.118;5.342;2023-08-07T03:29:33;0.55;;;0.55;;
16117;SDS011;8163;50.118;5.342;2023-08-07T03:32:00;0.60;;;0.60;;
16117;SDS011;8163;50.118;5.342;2023-08-07T03:34:27;0.60;;;0.60;;
16117;SDS011;8163;50.118;5.342;2023-08-07T03:36:54;0.60;;;0.60;;
16117;SDS011;8163;50.118;5.342;2023-08-07T03:39:25;0.60;;;0.60;;
16117;SDS011;8163;50.118;5.342;2023-08-07T03:41:52;0.60;;;0.60;;
16117;SDS011;8163;50.118;5.342;2023-08-07T03:44:19;0.60;;;0.60;;
16117;SDS011;8163;50.118;5.342;2023-08-07T03:46:47;0.50;;;0.50;;
16117;SDS011;8163;50.118;5.342;2023-08-07T03:49:14;0.60;;;0.60;;
16117;SDS011;8163;50.118;5.342;2023-08-07T03:51:41;0.60;;;0.60;;
16117;SDS011;8163;50.118;5.342;2023-08-07T03:54:08;0.50;;;0.50;;
16117;SDS011;8163;50.118;5.342;2023-08-07T03:56:36;0.70;;;0.70;;
16117;SDS011;8163;50.118;5.342;2023-08-07T03:59:03;0.60;;;0.60;;
16117;SDS011;8163;50.118;5.342;2023-08-07T04:01:30;0.60;;;0.60;;
16117;SDS011;8163;50.118;5.342;2023-08-07T04:03:57;0.60;;;0.60;;
16117;SDS011;8163;50.118;5.342;2023-08-07T04:06:24;0.60;;;0.60;;
16117;SDS011;8163;50.118;5.342;2023-08-07T04:08:53;0.60;;;0.60;;
16117;SDS011;8163;50.118;5.342;2023-08-07T04:11:21;0.60;;;0.60;;
16117;SDS011;8163;50.118;5.342;2023-08-07T04:13:49;0.60;;;0.60;;
16117;SDS011;8163;50.118;5.342;2023-08-07T04:16:16;0.60;;;0.60;;
16117;SDS011;8163;50.118;5.342;2023-08-07T04:18:43;0.60;;;0.60;;
16117;SDS011;8163;50.118;5.342;2023-08-07T04:21:10;0.60;;;0.60;;
16117;SDS011;8163;50.118;5.342;2023-08-07T04:23:37;0.57;;;0.57;;
16117;SDS011;8163;50.118;5.342;2023-08-07T04:26:05;0.60;;;0.60;;
16117;SDS011;8163;50.118;5.342;2023-08-07T04:28:32;0.60;;;0.60;;
16117;SDS011;8163;50.118;5.342;2023-08-07T04:31:00;0.60;;;0.60;;
16117;SDS011;8163;50.118;5.342;2023-08-07T04:33:27;0.40;;;0.40;;
16117;SDS011;8163;50.118;5.342;2023-08-07T04:35:54;0.60;;;0.60;;
16117;SDS011;8163;50.118;5.342;2023-08-07T04:38:22;0.60;;;0.60;;
16117;SDS011;8163;50.118;5.342;2023-08-07T04:40:49;0.50;;;0.50;;
16117;SDS011;8163;50.118;5.342;2023-08-07T04:43:17;0.60;;;0.60;;
16117;SDS011;8163;50.118;5.342;2023-08-07T04:45:45;0.40;;;0.40;;
16117;SDS011;8163;50.118;5.342;2023-08-07T04:48:14;0.60;;;0.60;;
16117;SDS011;8163;50.118;5.342;2023-08-07T04:50:42;0.50;;;0.50;;
16117;SDS011;8163;50.118;5.342;2023-08-07T04:53:10;0.60;;;0.60;;
16117;SDS011;8163;50.118;5.342;2023-08-07T04:55:37;0.60;;;0.60;;
16117;SDS011;8163;50.118;5.342;2023-08-07T04:58:05;0.60;;;0.60;;
16117;SDS011;8163;50.118;5.342;2023-08-07T05:00:32;0.50;;;0.50;;
16117;SDS011;8163;50.118;5.342;2023-08-07T05:02:59;0.30;;;0.30;;
16117;SDS011;8163;50.118;5.342;2023-08-07T05:05:27;0.30;;;0.30;;
16117;SDS011;8163;50.118;5.342;2023-08-07T05:07:54;0.30;;;0.30;;
16117;SDS011;8163;50.118;5.342;2023-08-07T05:10:24;0.30;;;0.30;;
16117;SDS011;8163;50.118;5.342;2023-08-07T05:12:51;0.30;;;0.30;;
16117;SDS011;8163;50.118;5.342;2023-08-07T05:15:20;0.30;;;0.30;;
16117;SDS011;8163;50.118;5.342;2023-08-07T05:17:48;0.30;;;0.30;;
16117;SDS011;8163;50.118;5.342;2023-08-07T05:20:16;0.30;;;0.30;;
16117;SDS011;8163;50.118;5.342;2023-08-07T05:22:44;0.20;;;0.20;;
16117;SDS011;8163;50.118;5.342;2023-08-07T05:25:11;0.20;;;0.20;;
16117;SDS011;8163;50.118;5.342;2023-08-07T05:27:40;0.20;;;0.20;;
16117;SDS011;8163;50.118;5.342;2023-08-07T05:30:08;0.10;;;0.10;;
16117;SDS011;8163;50.118;5.342;2023-08-07T05:32:36;0.10;;;0.10;;
16117;SDS011;8163;50.118;5.342;2023-08-07T05:35:04;0.15;;;0.15;;
16117;SDS011;8163;50.118;5.342;2023-08-07T05:37:32;0.20;;;0.20;;
16117;SDS011;8163;50.118;5.342;2023-08-07T05:40:00;0.20;;;0.20;;
16117;SDS011;8163;50.118;5.342;2023-08-07T05:42:28;0.10;;;0.10;;
16117;SDS011;8163;50.118;5.342;2023-08-07T05:44:55;0.20;;;0.20;;
16117;SDS011;8163;50.118;5.342;2023-08-07T05:47:22;0.20;;;0.20;;
16117;SDS011;8163;50.118;5.342;2023-08-07T05:49:49;0.10;;;0.10;;
16117;SDS011;8163;50.118;5.342;2023-08-07T05:52:17;0.10;;;0.10;;
16117;SDS011;8163;50.118;5.342;2023-08-07T05:54:44;0.13;;;0.13;;
16117;SDS011;8163;50.118;5.342;2023-08-07T05:57:12;0.30;;;0.30;;
16117;SDS011;8163;50.118;5.342;2023-08-07T05:59:39;0.20;;;0.20;;
16117;SDS011;8163;50.118;5.342;2023-08-07T06:02:07;0.10;;;0.10;;
16117;SDS011;8163;50.118;5.342;2023-08-07T06:04:36;0.20;;;0.20;;
16117;SDS011;8163;50.118;5.342;2023-08-07T06:07:03;0.20;;;0.20;;
16117;SDS011;8163;50.118;5.342;2023-08-07T06:09:30;0.10;;;0.10;;
16117;SDS011;8163;50.118;5.342;2023-08-07T06:11:58;0.10;;;0.10;;
16117;SDS011;8163;50.118;5.342;2023-08-07T06:14:26;0.10;;;0.10;;
16117;SDS011;8163;50.118;5.342;2023-08-07T06:16:54;0.10;;;0.10;;
16117;SDS011;8163;50.118;5.342;2023-08-07T06:19:23;0.10;;;0.10;;
16117;SDS011;8163;50.118;5.342;2023-08-07T06:21:52;0.10;;;0.10;;
16117;SDS011;8163;50.118;5.342;2023-08-07T06:24:19;0.13;;;0.13;;
16117;SDS011;8163;50.118;5.342;2023-08-07T06:26:46;0.10;;;0.10;;
16117;SDS011;8163;50.118;5.342;2023-08-07T06:29:13;0.10;;;0.10;;
16117;SDS011;8163;50.118;5.342;2023-08-07T06:31:41;0.10;;;0.10;;
16117;SDS011;8163;50.118;5.342;2023-08-07T06:34:08;0.10;;;0.10;;
16117;SDS011;8163;50.118;5.342;2023-08-07T06:36:35;0.10;;;0.10;;
16117;SDS011;8163;50.118;5.342;2023-08-07T06:39:02;0.10;;;0.10;;
16117;SDS011;8163;50.118;5.342;2023-08-07T06:41:29;0.10;;;0.10;;
16117;SDS011;8163;50.118;5.342;2023-08-07T06:43:56;0.13;;;0.13;;
16117;SDS011;8163;50.118;5.342;2023-08-07T06:46:23;0.10;;;0.10;;
16117;SDS011;8163;50.118;5.342;2023-08-07T06:48:54;0.10;;;0.10;;
16117;SDS011;8163;50.118;5.342;2023-08-07T06:51:21;0.10;;;0.10;;
16117;SDS011;8163;50.118;5.342;2023-08-07T06:53:48;0.08;;;0.08;;
16117;SDS011;8163;50.118;5.342;2023-08-07T06:56:15;0.10;;;0.10;;
16117;SDS011;8163;50.118;5.342;2023-08-07T06:58:43;0.10;;;0.10;;
16117;SDS011;8163;50.118;5.342;2023-08-07T07:01:10;0.10;;;0.10;;
16117;SDS011;8163;50.118;5.342;2023-08-07T07:03:37;0.10;;;0.10;;
16117;SDS011;8163;50.118;5.342;2023-08-07T07:06:05;0.10;;;0.10;;
16117;SDS011;8163;50.118;5.342;2023-08-07T07:08:32;0.20;;;0.20;;
16117;SDS011;8163;50.118;5.342;2023-08-07T07:10:59;0.10;;;0.10;;
16117;SDS011;8163;50.118;5.342;2023-08-07T07:13:26;0.10;;;0.10;;
16117;SDS011;8163;50.118;5.342;2023-08-07T07:15:54;0.08;;;0.08;;
16117;SDS011;8163;50.118;5.342;2023-08-07T07:18:21;0.10;;;0.10;;
16117;SDS011;8163;50.118;5.342;2023-08-07T07:20:48;0.00;;;0.00;;
16117;SDS011;8163;50.118;5.342;2023-08-07T07:23:24;0.10;;;0.10;;
16117;SDS011;8163;50.118;5.342;2023-08-07T07:25:51;0.10;;;0.10;;
16117;SDS011;8163;50.118;5.342;2023-08-07T07:28:18;0.10;;;0.10;;
16117;SDS011;8163;50.118;5.342;2023-08-07T07:30:45;0.10;;;0.10;;
16117;SDS011;8163;50.118;5.342;2023-08-07T07:33:12;0.00;;;0.00;;
16117;SDS011;8163;50.118;5.342;2023-08-07T07:35:39;0.10;;;0.10;;
16117;SDS011;8163;50.118;5.342;2023-08-07T07:38:07;0.00;;;0.00;;
16117;SDS011;8163;50.118;5.342;2023-08-07T07:40:36;0.10;;;0.10;;
16117;SDS011;8163;50.118;5.342;2023-08-07T07:43:03;0.15;;;0.15;;
16117;SDS011;8163;50.118;5.342;2023-08-07T07:45:30;0.10;;;0.10;;
16117;SDS011;8163;50.118;5.342;2023-08-07T07:47:59;0.10;;;0.10;;
16117;SDS011;8163;50.118;5.342;2023-08-07T07:50:26;0.10;;;0.10;;
16117;SDS011;8163;50.118;5.342;2023-08-07T07:52:53;0.10;;;0.10;;
16117;SDS011;8163;50.118;5.342;2023-08-07T07:55:20;0.20;;;0.20;;
16117;SDS011;8163;50.118;5.342;2023-08-07T07:57:48;0.20;;;0.20;;
16117;SDS011;8163;50.118;5.342;2023-08-07T08:00:15;0.13;;;0.13;;
16117;SDS011;8163;50.118;5.342;2023-08-07T08:02:43;0.20;;;0.20;;
16117;SDS011;8163;50.118;5.342;2023-08-07T08:05:10;0.20;;;0.20;;
16117;SDS011;8163;50.118;5.342;2023-08-07T08:07:38;0.13;;;0.13;;
16117;SDS011;8163;50.118;5.342;2023-08-07T08:10:06;0.10;;;0.10;;
16117;SDS011;8163;50.118;5.342;2023-08-07T08:12:34;0.10;;;0.10;;
16117;SDS011;8163;50.118;5.342;2023-08-07T08:15:02;0.20;;;0.20;;
16117;SDS011;8163;50.118;5.342;2023-08-07T08:17:30;0.20;;;0.20;;
16117;SDS011;8163;50.118;5.342;2023-08-07T08:19:57;0.15;;;0.15;;
16117;SDS011;8163;50.118;5.342;2023-08-07T08:22:24;0.20;;;0.20;;
16117;SDS011;8163;50.118;5.342;2023-08-07T08:24:51;0.17;;;0.17;;
16117;SDS011;8163;50.118;5.342;2023-08-07T08:27:18;0.20;;;0.20;;
16117;SDS011;8163;50.118;5.342;2023-08-07T08:29:46;0.13;;;0.13;;
16117;SDS011;8163;50.118;5.342;2023-08-07T08:32:14;0.10;;;0.10;;
16117;SDS011;8163;50.118;5.342;2023-08-07T08:34:41;0.10;;;0.10;;
16117;SDS011;8163;50.118;5.342;2023-08-07T08:37:08;0.10;;;0.10;;
16117;SDS011;8163;50.118;5.342;2023-08-07T08:39:36;0.10;;;0.10;;
16117;SDS011;8163;50.118;5.342;2023-08-07T08:42:03;0.43;;;0.43;;
16117;SDS011;8163;50.118;5.342;2023-08-07T08:44:31;0.20;;;0.20;;
16117;SDS011;8163;50.118;5.342;2023-08-07T08:47:02;0.20;;;0.20;;
16117;SDS011;8163;50.118;5.342;2023-08-07T08:49:32;0.20;;;0.20;;
16117;SDS011;8163;50.118;5.342;2023-08-07T08:52:02;0.10;;;0.10;;
16117;SDS011;8163;50.118;5.342;2023-08-07T08:54:30;0.20;;;0.20;;
16117;SDS011;8163;50.118;5.342;2023-08-07T08:56:58;0.10;;;0.10;;
16117;SDS011;8163;50.118;5.342;2023-08-07T08:59:26;0.00;;;0.00;;
16117;SDS011;8163;50.118;5.342;2023-08-07T09:01:53;0.00;;;0.00;;
16117;SDS011;8163;50.118;5.342;2023-08-07T09:04:21;0.05;;;0.05;;
16117;SDS011;8163;50.118;5.342;2023-08-07T09:06:49;0.10;;;0.10;;
16117;SDS011;8163;50.118;5.342;2023-08-07T09:09:17;0.10;;;0.10;;
16117;SDS011;8163;50.118;5.342;2023-08-07T09:11:46;0.10;;;0.10;;
16117;SDS011;8163;50.118;5.342;2023-08-07T09:14:15;0.10;;;0.10;;
16117;SDS011;8163;50.118;5.342;2023-08-07T09:16:43;0.00;;;0.00;;
16117;SDS011;8163;50.118;5.342;2023-08-07T09:19:12;0.00;;;0.00;;
16117;SDS011;8163;50.118;5.342;2023-08-07T09:21:40;0.10;;;0.10;;
16117;SDS011;8163;50.118;5.342;2023-08-07T09:24:09;0.10;;;0.10;;
16117;SDS011;8163;50.118;5.342;2023-08-07T09:26:36;0.10;;;0.10;;
16117;SDS011;8163;50.118;5.342;2023-08-07T09:29:05;0.10;;;0.10;;
16117;SDS011;8163;50.118;5.342;2023-08-07T09:31:36;0.08;;;0.08;;
16117;SDS011;8163;50.118;5.342;2023-08-07T09:34:03;0.10;;;0.10;;
16117;SDS011;8163;50.118;5.342;2023-08-07T09:36:31;0.10;;;0.10;;
16117;SDS011;8163;50.118;5.342;2023-08-07T09:39:00;0.10;;;0.10;;
16117;SDS011;8163;50.118;5.342;2023-08-07T09:41:29;0.10;;;0.10;;
16117;SDS011;8163;50.118;5.342;2023-08-07T09:43:57;0.00;;;0.00;;
16117;SDS011;8163;50.118;5.342;2023-08-07T09:46:25;0.08;;;0.08;;
16117;SDS011;8163;50.118;5.342;2023-08-07T09:48:52;0.00;;;0.00;;
16117;SDS011;8163;50.118;5.342;2023-08-07T09:51:25;0.10;;;0.10;;
16117;SDS011;8163;50.118;5.342;2023-08-07T09:53:52;0.10;;;0.10;;
16117;SDS011;8163;50.118;5.342;2023-08-07T09:56:20;0.10;;;0.10;;
16117;SDS011;8163;50.118;5.342;2023-08-07T09:58:48;0.10;;;0.10;;
16117;SDS011;8163;50.118;5.342;2023-08-07T10:01:16;0.10;;;0.10;;
16117;SDS011;8163;50.118;5.342;2023-08-07T10:03:43;0.10;;;0.10;;
16117;SDS011;8163;50.118;5.342;2023-08-07T10:06:11;0.10;;;0.10;;
16117;SDS011;8163;50.118;5.342;2023-08-07T10:08:39;0.15;;;0.15;;
16117;SDS011;8163;50.118;5.342;2023-08-07T10:11:08;0.10;;;0.10;;
16117;SDS011;8163;50.118;5.342;2023-08-07T10:13:36;0.17;;;0.17;;
16117;SDS011;8163;50.118;5.342;2023-08-07T10:16:07;0.10;;;0.10;;
16117;SDS011;8163;50.118;5.342;2023-08-07T10:18:35;0.20;;;0.20;;
16117;SDS011;8163;50.118;5.342;2023-08-07T10:21:03;0.20;;;0.20;;
16117;SDS011;8163;50.118;5.342;2023-08-07T10:23:32;0.20;;;0.20;;
16117;SDS011;8163;50.118;5.342;2023-08-07T11:02:48;0.20;;;0.20;;
16117;SDS011;8163;50.118;5.342;2023-08-07T11:05:17;0.13;;;0.13;;
16117;SDS011;8163;50.118;5.342;2023-08-07T11:07:44;0.10;;;0.10;;
16117;SDS011;8163;50.118;5.342;2023-08-07T11:10:12;0.13;;;0.13;;
16117;SDS011;8163;50.118;5.342;2023-08-07T11:12:41;0.13;;;0.13;;
16117;SDS011;8163;50.118;5.342;2023-08-07T11:15:11;0.20;;;0.20;;
16117;SDS011;8163;50.118;5.342;2023-08-07T11:17:39;0.05;;;0.05;;
16117;SDS011;8163;50.118;5.342;2023-08-07T11:20:09;0.10;;;0.10;;
16117;SDS011;8163;50.118;5.342;2023-08-07T11:22:37;0.00;;;0.00;;
16117;SDS011;8163;50.118;5.342;2023-08-07T11:25:06;0.10;;;0.10;;
16117;SDS011;8163;50.118;5.342;2023-08-07T11:27:38;0.10;;;0.10;;
16117;SDS011;8163;50.118;5.342;2023-08-07T11:30:10;0.05;;;0.05;;
16117;SDS011;8163;50.118;5.342;2023-08-07T11:32:39;0.10;;;0.10;;
16117;SDS011;8163;50.118;5.342;2023-08-07T11:35:26;0.10;;;0.10;;
16117;SDS011;8163;50.118;5.342;2023-08-07T11:37:53;0.10;;;0.10;;
16117;SDS011;8163;50.118;5.342;2023-08-07T11:40:20;0.10;;;0.10;;
16117;SDS011;8163;50.118;5.342;2023-08-07T11:42:47;0.10;;;0.10;;
16117;SDS011;8163;50.118;5.342;2023-08-07T11:45:14;0.10;;;0.10;;
16117;SDS011;8163;50.118;5.342;2023-08-07T11:47:41;0.20;;;0.20;;
16117;SDS011;8163;50.118;5.342;2023-08-07T11:50:09;0.10;;;0.10;;
16117;SDS011;8163;50.118;5.342;2023-08-07T11:52:38;0.10;;;0.10;;
16117;SDS011;8163;50.118;5.342;2023-08-07T11:55:06;0.10;;;0.10;;
16117;SDS011;8163;50.118;5.342;2023-08-07T11:57:34;0.10;;;0.10;;
16117;SDS011;8163;50.118;5.342;2023-08-07T12:00:06;0.10;;;0.10;;
16117;SDS011;8163;50.118;5.342;2023-08-07T12:02:40;0.00;;;0.00;;
16117;SDS011;8163;50.118;5.342;2023-08-07T12:05:08;0.03;;;0.03;;
16117;SDS011;8163;50.118;5.342;2023-08-07T12:07:39;0.00;;;0.00;;
16117;SDS011;8163;50.118;5.342;2023-08-07T12:10:06;0.10;;;0.10;;
16117;SDS011;8163;50.118;5.342;2023-08-07T12:12:35;0.08;;;0.08;;
16117;SDS011;8163;50.118;5.342;2023-08-07T12:15:03;0.10;;;0.10;;
16117;SDS011;8163;50.118;5.342;2023-08-07T12:17:32;0.00;;;0.00;;
16117;SDS011;8163;50.118;5.342;2023-08-07T12:19:59;0.10;;;0.10;;
16117;SDS011;8163;50.118;5.342;2023-08-07T12:22:27;0.10;;;0.10;;
16117;SDS011;8163;50.118;5.342;2023-08-07T12:24:56;0.10;;;0.10;;
16117;SDS011;8163;50.118;5.342;2023-08-07T12:27:23;0.10;;;0.10;;
16117;SDS011;8163;50.118;5.342;2023-08-07T12:29:51;0.10;;;0.10;;
16117;SDS011;8163;50.118;5.342;2023-08-07T12:32:18;0.10;;;0.10;;
16117;SDS011;8163;50.118;5.342;2023-08-07T12:34:45;0.10;;;0.10;;
16117;SDS011;8163;50.118;5.342;2023-08-07T12:37:15;0.10;;;0.10;;
16117;SDS011;8163;50.118;5.342;2023-08-07T12:39:42;0.10;;;0.10;;
16117;SDS011;8163;50.118;5.342;2023-08-07T12:42:10;0.10;;;0.10;;
16117;SDS011;8163;50.118;5.342;2023-08-07T12:44:37;0.10;;;0.10;;
16117;SDS011;8163;50.118;5.342;2023-08-07T12:47:05;0.20;;;0.20;;
16117;SDS011;8163;50.118;5.342;2023-08-07T12:49:32;0.10;;;0.10;;
16117;SDS011;8163;50.118;5.342;2023-08-07T12:51:59;0.00;;;0.00;;
16117;SDS011;8163;50.118;5.342;2023-08-07T12:54:26;0.10;;;0.10;;
16117;SDS011;8163;50.118;5.342;2023-08-07T12:56:53;0.10;;;0.10;;
16117;SDS011;8163;50.118;5.342;2023-08-07T12:59:22;0.10;;;0.10;;
16117;SDS011;8163;50.118;5.342;2023-08-07T13:01:49;0.10;;;0.10;;
16117;SDS011;8163;50.118;5.342;2023-08-07T13:04:18;0.10;;;0.10;;
16117;SDS011;8163;50.118;5.342;2023-08-07T13:06:45;0.10;;;0.10;;
16117;SDS011;8163;50.118;5.342;2023-08-07T13:09:14;0.10;;;0.10;;
16117;SDS011;8163;50.118;5.342;2023-08-07T13:11:41;0.13;;;0.13;;
16117;SDS011;8163;50.118;5.342;2023-08-07T13:14:08;0.13;;;0.13;;
16117;SDS011;8163;50.118;5.342;2023-08-07T13:16:37;0.10;;;0.10;;
16117;SDS011;8163;50.118;5.342;2023-08-07T13:19:04;0.20;;;0.20;;
16117;SDS011;8163;50.118;5.342;2023-08-07T13:21:31;0.15;;;0.15;;
16117;SDS011;8163;50.118;5.342;2023-08-07T13:23:58;0.20;;;0.20;;
16117;SDS011;8163;50.118;5.342;2023-08-07T13:26:25;0.20;;;0.20;;
16117;SDS011;8163;50.118;5.342;2023-08-07T13:28:52;0.20;;;0.20;;
16117;SDS011;8163;50.118;5.342;2023-08-07T13:31:19;0.10;;;0.10;;
16117;SDS011;8163;50.118;5.342;2023-08-07T13:33:47;0.20;;;0.20;;
16117;SDS011;8163;50.118;5.342;2023-08-07T13:36:14;0.10;;;0.10;;
16117;SDS011;8163;50.118;5.342;2023-08-07T13:38:41;0.20;;;0.20;;
16117;SDS011;8163;50.118;5.342;2023-08-07T13:41:08;0.10;;;0.10;;
16117;SDS011;8163;50.118;5.342;2023-08-07T13:43:38;0.10;;;0.10;;
16117;SDS011;8163;50.118;5.342;2023-08-07T13:46:05;0.10;;;0.10;;
16117;SDS011;8163;50.118;5.342;2023-08-07T13:48:33;0.10;;;0.10;;
16117;SDS011;8163;50.118;5.342;2023-08-07T13:51:01;0.10;;;0.10;;
16117;SDS011;8163;50.118;5.342;2023-08-07T13:53:32;0.20;;;0.20;;
16117;SDS011;8163;50.118;5.342;2023-08-07T13:55:59;0.17;;;0.17;;
16117;SDS011;8163;50.118;5.342;2023-08-07T13:58:26;0.20;;;0.20;;
16117;SDS011;8163;50.118;5.342;2023-08-07T14:00:54;0.22;;;0.22;;
16117;SDS011;8163;50.118;5.342;2023-08-07T14:03:22;0.10;;;0.10;;
16117;SDS011;8163;50.118;5.342;2023-08-07T14:05:49;0.10;;;0.10;;
16117;SDS011;8163;50.118;5.342;2023-08-07T14:08:18;0.20;;;0.20;;
16117;SDS011;8163;50.118;5.342;2023-08-07T14:10:45;0.20;;;0.20;;
16117;SDS011;8163;50.118;5.342;2023-08-07T14:13:12;0.10;;;0.10;;
16117;SDS011;8163;50.118;5.342;2023-08-07T14:15:39;0.10;;;0.10;;
16117;SDS011;8163;50.118;5.342;2023-08-07T14:18:06;0.20;;;0.20;;
16117;SDS011;8163;50.118;5.342;2023-08-07T14:20:34;0.10;;;0.10;;
16117;SDS011;8163;50.118;5.342;2023-08-07T14:23:01;0.10;;;0.10;;
16117;SDS011;8163;50.118;5.342;2023-08-07T14:25:29;0.17;;;0.17;;
16117;SDS011;8163;50.118;5.342;2023-08-07T14:27:56;0.20;;;0.20;;
16117;SDS011;8163;50.118;5.342;2023-08-07T14:30:24;0.17;;;0.17;;
16117;SDS011;8163;50.118;5.342;2023-08-07T14:32:51;0.10;;;0.10;;
16117;SDS011;8163;50.118;5.342;2023-08-07T14:35:18;0.20;;;0.20;;
16117;SDS011;8163;50.118;5.342;2023-08-07T14:37:45;0.20;;;0.20;;
16117;SDS011;8163;50.118;5.342;2023-08-07T14:40:13;0.10;;;0.10;;
16117;SDS011;8163;50.118;5.342;2023-08-07T14:42:42;0.15;;;0.15;;
16117;SDS011;8163;50.118;5.342;2023-08-07T14:45:09;0.20;;;0.20;;
16117;SDS011;8163;50.118;5.342;2023-08-07T14:47:37;0.20;;;0.20;;
16117;SDS011;8163;50.118;5.342;2023-08-07T14:50:04;0.20;;;0.20;;
16117;SDS011;8163;50.118;5.342;2023-08-07T14:52:31;0.10;;;0.10;;
16117;SDS011;8163;50.118;5.342;2023-08-07T14:54:58;0.10;;;0.10;;
16117;SDS011;8163;50.118;5.342;2023-08-07T14:57:26;0.28;;;0.28;;
16117;SDS011;8163;50.118;5.342;2023-08-07T14:59:55;0.10;;;0.10;;
16117;SDS011;8163;50.118;5.342;2023-08-07T15:02:22;0.10;;;0.10;;
16117;SDS011;8163;50.118;5.342;2023-08-07T15:04:49;0.20;;;0.20;;
16117;SDS011;8163;50.118;5.342;2023-08-07T15:07:16;0.10;;;0.10;;
16117;SDS011;8163;50.118;5.342;2023-08-07T15:09:43;0.10;;;0.10;;
16117;SDS011;8163;50.118;5.342;2023-08-07T15:12:10;0.20;;;0.20;;
16117;SDS011;8163;50.118;5.342;2023-08-07T15:14:38;0.20;;;0.20;;
16117;SDS011;8163;50.118;5.342;2023-08-07T15:17:07;0.20;;;0.20;;
16117;SDS011;8163;50.118;5.342;2023-08-07T15:19:34;0.20;;;0.20;;
16117;SDS011;8163;50.118;5.342;2023-08-07T15:22:01;0.10;;;0.10;;
16117;SDS011;8163;50.118;5.342;2023-08-07T15:24:29;0.20;;;0.20;;
16117;SDS011;8163;50.118;5.342;2023-08-07T15:26:56;0.20;;;0.20;;
16117;SDS011;8163;50.118;5.342;2023-08-07T15:29:23;0.10;;;0.10;;
16117;SDS011;8163;50.118;5.342;2023-08-07T15:31:50;0.17;;;0.17;;
16117;SDS011;8163;50.118;5.342;2023-08-07T15:34:18;0.20;;;0.20;;
16117;SDS011;8163;50.118;5.342;2023-08-07T15:36:45;0.20;;;0.20;;
16117;SDS011;8163;50.118;5.342;2023-08-07T15:39:12;0.20;;;0.20;;
16117;SDS011;8163;50.118;5.342;2023-08-07T15:41:39;0.20;;;0.20;;